Brant, MI (48614)

4:21 AM EST en Noviembre 27, 2014 (GMT -0500)
Hoovers Corners | Change Station
CLOSE
Current Station
Estación meteorológica personal
Location: Elsie, MI
Altura: 741 ft
Estaciones meteorológicas cercanas

Alt 741 ft 43.10 °N, 84.34 °W | Updated 11 minutes ago

Nublado
Nublado
28.8 ° F
Sensación térmica 23 ° F
N
5.0
Viento Variable Viento desde ONO
Gusts 7.0 mph

Hoy
Alta -- | Baja -- ° F
--% Posibilidad de precipitaciones
Ayer
Alta -- | Baja -- ° F
Precip. -- pul
7:44 AM 5:04 PM
Creciente, 27% visible
Presión 30.11 pul
Visibilidad 10.0 Millas
Nubes Nublado 3600 ft
Vientos helados 23 ° F
Punto de rocío 24 ° F
Humedad 83%
Precipitaciones 0.00 pul
Espesor de la nieve No disponible.
UV 0 de una escala de 12
Polen .10 de una escala de 12
Calidad del aire No disponible.
Flu Activity No disponible.
METAR KRNP 270914Z AUTO 29006KT 10SM OVC036 M02/M06 A3011 RMK AO2 T10171058

More Conditions Fewer Conditions

Presión 30.11 pul
Visibilidad 10.0 Millas
Nubes Nublado 3600 ft
Vientos helados 23 ° F
Punto de rocío 24 ° F
Humedad 83%
Precipitaciones 0.00 pul
Espesor de la nieve No disponible.
UV 0 de una escala de 12
Polen .10 de una escala de 12
Calidad del aire No disponible.
Flu Activity No disponible.
METAR KRNP 270914Z AUTO 29006KT 10SM OVC036 M02/M06 A3011 RMK AO2 T10171058

More Conditions Fewer Conditions

10-Day Weather Forecast

Almanac

Astronomía

Nov. 27, 2014 Salida Puesta
Hora real
Crepúsculo civil
Crepúsculo náutico
Crepúsculo astronómico
Luna
Horas de luz
Horas de luz
Tomorrow will be .
, % of the Moon is Illuminated

Extremos de hoy

Máximos del estado Bajos del estado

Community

WunderPhotos

Upload Photos

1,773,965 ¡fotos cargadas!

WunderBlogs® & News

Nearby

Calidad del aire

  Calidad del aire Índice AQ Contaminante
Not available.

Grosos de nieve

Estación Profundido Altura

Actividad de terremotos

Ciudad Distance Mag. Tiempo y dato
Magnitud mínima muestra es 2,5.

Temperaturas de aguas costeras

Lugar Temperatura

Estaciones meteorológicas cercanas